Flight Track Log - Related Links

Times and Time Zones

All times are in EDT time to prevent confusion due to time zone crossing. See the SWA1960 flight status page for this flight to view local times or setup timezone preferences in your user account.

Time Position Orientation Groundspeed Altitude Reporting Facility
EDT Latitude Longitude Course Direction KTS MPH feet Rate Location/Type
Fri 07:12:07 PM 41.7631 -87.9186 262° West 235 270 7,100  Level Chicago Center
Fri 07:13:09 PM 41.7644 -88.0161 271° West 259 298 11,300 2,371 Climbing Chicago Center
Fri 07:14:11 PM 41.7633 -88.1200 269° West 278 320 12,000 532 Climbing Chicago Center
Fri 07:15:13 PM 41.7608 -88.2281 268° West 293 337 12,400 1,839 Climbing Chicago Center
Fri 07:16:15 PM 41.7592 -88.3819 269° West 351 404 15,800 3,290 Climbing Chicago Center
Fri 07:17:17 PM 41.7564 -88.5167 268° West 365 420 19,200 3,194 Climbing Chicago Center
Fri 07:18:19 PM 41.7506 -88.6528 267° West 370 426 22,400 2,710 Climbing Chicago Center
Fri 07:19:21 PM 41.7319 -88.7919 260° West 382 440 24,800 2,323 Climbing Chicago Center
Fri 07:20:23 PM 41.7142 -88.9347 261° West 393 452 27,200 2,855 Climbing Chicago Center
Fri 07:21:25 PM 41.7108 -89.1081 269° West 390 449 30,700 2,952 Climbing Chicago Center
Fri 07:22:27 PM 41.7108 -89.2414 270° West 367 422 33,300 2,177 Climbing Chicago Center
Fri 07:23:29 PM 41.7100 -89.3725 270° West 357 411 35,200 1,306 Climbing Chicago Center
Fri 07:24:31 PM 41.7089 -89.5053 269° West 359 413 36,000 387 Climbing Chicago Center
Fri 07:25:33 PM 41.7072 -89.6511 269° West 361 415 36,000  Level Chicago Center
Fri 07:26:35 PM 41.7061 -89.7839 269° West 360 414 36,000  Level Chicago Center
Fri 07:27:37 PM 41.7039 -89.9203 269° West 365 420 36,000  Level Chicago Center
Fri 07:28:39 PM 41.7019 -90.0558 269° West 366 421 36,000  Level Chicago Center
Fri 07:29:41 PM 41.6994 -90.2192 269° West 367 422 36,000  Level Chicago Center
Fri 07:30:43 PM 41.6967 -90.3608 269° West 381 438 36,000  Level Chicago Center
Fri 07:31:45 PM 41.6939 -90.4981 268° West 373 429 36,000  Level Chicago Center
Fri 07:32:47 PM 41.6917 -90.6339 269° West 372 428 36,000  Level Chicago Center
Fri 07:33:49 PM 41.6878 -90.7717 268° West 373 429 36,000  Level Chicago Center
Fri 07:34:51 PM 41.6847 -90.9364 269° West 373 429 36,000  Level Chicago Center
Fri 07:35:53 PM 41.6814 -91.0706 268° West 366 421 36,000  Level Chicago Center
Fri 07:36:55 PM 41.6783 -91.2072 268° West 368 423 36,000  Level Chicago Center
Fri 07:37:56 PM 41.6747 -91.3456 268° West 373 429 36,000  Level Chicago Center
Fri 07:38:58 PM 41.6711 -91.4825 268° West 371 427 36,000  Level Chicago Center
Fri 07:40:00 PM 41.6678 -91.6217 268° West 374 430 36,000  Level Chicago Center
Fri 07:41:02 PM 41.6617 -91.7886 267° West 377 434 36,000  Level Chicago Center
Fri 07:42:04 PM 41.6586 -91.9267 268° West 375 432 36,000  Level Chicago Center
Fri 07:43:06 PM 41.6531 -92.0664 267° West 378 435 36,000  Level Chicago Center
Fri 07:44:08 PM 41.6492 -92.2058 268° West 377 434 36,000  Level Chicago Center
Fri 07:45:10 PM 41.6442 -92.3456 267° West 378 435 36,000  Level Chicago Center
Fri 07:46:12 PM 41.6381 -92.5158 267° West 383 441 36,000  Level Chicago Center
Fri 07:47:14 PM 41.6331 -92.6553 267° West 380 437 36,000  Level Chicago Center
Fri 07:47:51 PM 41.6294 -92.7456 267° West 383 441 36,000  Level Minneapolis Center
Fri 07:48:53 PM 41.6242 -92.8869 267° West 384 442 36,000 -242 Level Minneapolis Center
Fri 07:49:55 PM 41.6178 -93.0264 267° West 382 440 35,500 -683 Descending Minneapolis Center
Fri 07:50:56 PM 41.6122 -93.1669 267° West 382 440 34,600 -732 Descending Minneapolis Center
Fri 07:51:58 PM 41.6042 -93.3406 267° West 387 445 34,000 -290 Descending Minneapolis Center
Fri 07:53:00 PM 41.5969 -93.4856 266° West 391 450 34,000  Level Minneapolis Center
Fri 07:54:02 PM 41.5931 -93.6208 268° West 383 441 34,000  Level Minneapolis Center
Fri 07:55:04 PM 41.5867 -93.7642 267° West 386 444 34,000 -242 Level Minneapolis Center
Fri 07:56:06 PM 41.5803 -93.9086 267° West 392 451 33,500 -1,161 Descending Minneapolis Center
Fri 07:57:08 PM 41.5711 -94.0500 265° West 389 448 31,600 -2,032 Descending Minneapolis Center
Fri 07:58:10 PM 41.5650 -94.2092 267° West 369 425 29,300 -2,081 Descending Minneapolis Center
Fri 07:59:12 PM 41.5528 -94.3508 263° West 359 413 27,300 -1,984 Descending Minneapolis Center
Fri 08:00:14 PM 41.5456 -94.4833 266° West 357 411 25,200 -1,790 Descending Minneapolis Center
Fri 08:01:16 PM 41.5422 -94.5931 268° West 365 420 23,600 -1,887 Descending Minneapolis Center
Fri 08:02:18 PM 41.5358 -94.7519 267° West 360 414 21,300 -2,192 Descending Minneapolis Center
Fri 08:03:00 PM 41.5425 -94.8597 275° West 358 412 19,800 -1,839 Descending Minneapolis Center
Fri 08:03:20 PM 41.5272 -94.8814 227° Southwest 354 407 19,400 -1,463 Descending Minneapolis Center
Fri 08:04:22 PM 41.5203 -95.0067 266° West 343 395 17,800 -1,742 Descending Minneapolis Center
Fri 08:05:24 PM 41.5119 -95.1511 266° West 328 377 15,800 -2,661 Descending Minneapolis Center
Fri 08:06:26 PM 41.4878 -95.2692 255° West 326 375 12,300 -2,390 Descending Minneapolis Center
Fri 08:07:27 PM 41.4603 -95.3997 254° West 348 400 10,900 -1,210 Descending Minneapolis Center
Fri 08:08:30 PM 41.4292 -95.5000 248° West 328 377 9,800 -1,181 Descending Minneapolis Center
Fri 08:09:34 PM 41.4128 -95.6197 260° West 265 305 8,400 -1,776 Descending Minneapolis Center
Fri 08:10:35 PM 41.4028 -95.7181 262° West 266 306 6,100 -2,191 Descending Minneapolis Center
Fri 08:11:29 PM 41.3936 -95.8025 262° West 254 292 4,200 -1,726 Descending Minneapolis Center
Fri 08:11:48 PM 41.3928 -95.8081 259° West 265 305 4,000 -1,770 Descending Minneapolis Center
Fri 08:12:30 PM 41.3892 -95.8919 267° West 242 278 2,400 -1,548 Descending Minneapolis Center
Fri 08:12:50 PM 41.3889 -95.9150 269° West 253 291 2,400 -100 Level Minneapolis Center
Fri 08:13:30 PM 41.3719 -95.9494 237° Southwest 162 186 2,300 -290 Descending Minneapolis Center
Fri 08:13:52 PM 41.3592 -95.9433 160° South 190 219 2,100 -689 Descending Minneapolis Center
Fri 08:14:31 PM 41.3375 -95.9342 162° South 117 135 1,600 -667 Descending Minneapolis Center
Fri 08:14:55 PM 41.3278 -95.9183 129° Southeast 149 171 1,400 -349 Descending Minneapolis Center
Fri 08:15:57 PM 41.3000 -95.8925 145° Southeast 143 165 1,100 -290 Descending Minneapolis Center
Fri 08:17:00 PM 41.3000 -95.8833 246° West  Level FlightAware Approximate

Login

Don't have an account? Register now (free) for customized features, flight alerts, and more!